CYGP

Details ICAO CYGP (YGP)
Name GASPE
Region Canada
Timezone America/Montreal (UTC-5.0)
Plans Departing 8
Arriving 19
Stats Elevation 108 ft / 33 m (AMSL)
Location 48.775278° -64.478611°
Runways 1
Magnetic Variation 18.574° W
Sunrise 2017-12-16 12:06:41 UTC / 2017-12-16 07:06:41 Local
Sunset 2017-12-16 20:23:21 UTC / 2017-12-16 15:23:21 Local
Advertisement - Login to hide

Runways

ID Width Length Bearing (true) Bearing (mag) Surface Threshold Offset Overrun Length
11 150 ft / 46 m 4,488 ft / 1,368 m 83.95° 102.52° Asphalt 0 ft / 0 m 0 ft / 0 m
29 150 ft / 46 m 4,488 ft / 1,368 m 263.96° 282.53° Asphalt 0 ft / 0 m 0 ft / 0 m

Approach Navaids

Runway Type Ident Frequency Range Bearing (true) Bearing (mag) Slope Elevation
11 Localiser IGP 110.30 MHz 18 nm / 33 km 83.32° 101.89° - 108 ft / 33 m (AMSL)

Map

Weather


0- 5 10 15 20 25 30 35+ Temperature / ° C

Clouds and Precipitation
Forecast for 2017-12-17 00:00 UTC. Updated 2 hours ago

Ground ~20,000 ft ~40,000 ft Winds

METAR

CYGP 170000Z 28005KT 15SM SKC M13/M18 A2964 RMK SLP041

TAF

TAF CYGP 161938Z 1620/1708 28010G20KT P6SM FEW030 BKN240 TEMPO 1620/1624 BKN030 OVC240 FM170000 30012G22KT P6SM BKN025 TEMPO 1700/1708 5SM -SHSN BKN020 RMK NXT FCST BY 170200Z
Warning: Do not use this data for real-world aviation or navigation. No guarantee of current accuracy is given.